createdAt,value
2024-01-17T00:02:07.908Z,7.80
2024-01-17T00:04:34.599Z,7.20
2024-01-17T00:07:01.482Z,6.70
2024-01-17T00:09:28.202Z,6.30
2024-01-17T00:11:55.043Z,5.90
2024-01-17T00:14:21.756Z,5.22
2024-01-17T00:16:48.415Z,5.75
2024-01-17T00:19:15.357Z,6.80
2024-01-17T00:21:42.069Z,6.85
2024-01-17T00:24:08.800Z,6.32
2024-01-17T00:26:35.764Z,5.63
2024-01-17T00:29:02.395Z,5.70
2024-01-17T00:31:29.113Z,6.65
2024-01-17T00:33:55.869Z,6.13
2024-01-17T00:36:22.788Z,6.03
2024-01-17T00:38:49.518Z,5.78
2024-01-17T00:41:18.458Z,5.07
2024-01-17T00:43:45.080Z,5.72
2024-01-17T00:46:12.237Z,5.45
2024-01-17T00:48:39.126Z,6.63
2024-01-17T00:51:06.236Z,6.40
2024-01-17T00:53:33.117Z,5.93
2024-01-17T00:55:59.895Z,6.15
2024-01-17T00:58:26.560Z,6.45
2024-01-17T01:00:53.315Z,5.35
2024-01-17T01:03:20.111Z,5.68
2024-01-17T01:05:47.745Z,5.40
2024-01-17T01:08:14.608Z,5.60
2024-01-17T01:10:41.296Z,5.68
2024-01-17T01:13:10.124Z,4.57
2024-01-17T01:15:36.751Z,4.32
2024-01-17T01:18:03.728Z,3.70
2024-01-17T01:20:30.723Z,4.60
2024-01-17T01:22:57.452Z,4.75
2024-01-17T01:25:24.219Z,4.32
2024-01-17T01:27:50.874Z,5.47
2024-01-17T01:30:17.549Z,4.55
2024-01-17T01:32:44.391Z,4.68
2024-01-17T01:35:11.110Z,4.97
2024-01-17T01:37:37.766Z,4.25
2024-01-17T01:40:04.922Z,4.30
2024-01-17T01:42:32.237Z,5.10
2024-01-17T01:47:26.239Z,4.68
2024-01-17T01:49:53.278Z,4.60
2024-01-17T01:52:21.569Z,4.13
2024-01-17T01:54:49.296Z,3.75
2024-01-17T01:57:17.779Z,3.85
2024-01-17T01:59:46.878Z,3.90
2024-01-17T02:02:14.965Z,3.45
2024-01-17T02:04:44.145Z,4.55
2024-01-17T02:07:13.972Z,4.30
2024-01-17T02:09:42.166Z,3.38
2024-01-17T02:12:09.533Z,4.13
2024-01-17T02:14:41.212Z,3.90
2024-01-17T02:17:09.410Z,3.42
2024-01-17T02:19:37.478Z,3.95
2024-01-17T02:22:04.394Z,3.97
2024-01-17T02:24:32.430Z,4.55
2024-01-17T02:27:01.300Z,3.65
2024-01-17T02:29:29.673Z,4.47
2024-01-17T02:31:57.794Z,4.45
2024-01-17T02:34:25.012Z,4.72
2024-01-17T02:36:51.959Z,5.03
2024-01-17T02:39:18.586Z,4.50
2024-01-17T02:41:45.411Z,4.70
2024-01-17T02:44:12.196Z,5.22
2024-01-17T02:46:38.931Z,4.97
2024-01-17T02:49:05.762Z,4.32
2024-01-17T02:51:32.638Z,4.85
2024-01-17T02:53:59.347Z,5.00
2024-01-17T02:56:26.103Z,4.95
2024-01-17T02:58:52.776Z,5.50
2024-01-17T03:01:19.542Z,5.60
2024-01-17T03:03:46.267Z,5.20
2024-01-17T03:06:12.969Z,5.25
2024-01-17T03:08:39.757Z,5.43
2024-01-17T03:11:08.233Z,5.57
2024-01-17T03:13:35.782Z,5.68
2024-01-17T03:16:03.350Z,5.07
2024-01-17T03:18:30.966Z,4.97
2024-01-17T03:20:57.946Z,5.78
2024-01-17T03:23:24.692Z,4.93
2024-01-17T03:25:51.439Z,5.60
2024-01-17T03:28:18.120Z,5.40
2024-01-17T03:30:44.880Z,4.82
2024-01-17T03:33:11.599Z,4.45
2024-01-17T03:35:38.459Z,4.68
2024-01-17T03:38:05.114Z,5.10
2024-01-17T03:40:31.905Z,4.75
2024-01-17T03:42:58.510Z,4.80
2024-01-17T03:45:25.158Z,4.65
2024-01-17T03:47:51.888Z,5.00
2024-01-17T03:50:18.717Z,4.53
2024-01-17T03:52:45.317Z,4.88
2024-01-17T03:55:11.990Z,4.07
2024-01-17T03:57:38.598Z,4.00
2024-01-17T04:00:06.440Z,4.45
2024-01-17T04:02:33.169Z,4.70
2024-01-17T04:04:59.921Z,4.32
2024-01-17T04:07:26.637Z,4.28
2024-01-17T04:09:53.316Z,4.32
2024-01-17T04:12:21.856Z,4.47
2024-01-17T04:14:48.803Z,4.43
2024-01-17T04:17:15.541Z,4.50
2024-01-17T04:19:42.620Z,4.32
2024-01-17T04:22:09.378Z,4.07
2024-01-17T04:24:35.992Z,4.82
2024-01-17T04:27:02.749Z,5.38
2024-01-17T04:29:29.436Z,5.53
2024-01-17T04:31:58.183Z,5.30
2024-01-17T04:34:24.872Z,5.20
2024-01-17T04:36:51.676Z,5.40
2024-01-17T04:39:18.627Z,5.47
2024-01-17T04:41:45.411Z,6.43
2024-01-17T04:44:12.242Z,6.93
2024-01-17T04:46:39.705Z,5.90
2024-01-17T04:49:07.563Z,6.00
2024-01-17T04:51:34.510Z,5.85
2024-01-17T04:54:01.139Z,6.13
2024-01-17T04:56:27.882Z,5.75
2024-01-17T04:58:55.069Z,5.03
2024-01-17T05:01:21.765Z,5.40
2024-01-17T05:03:48.662Z,5.60
2024-01-17T05:06:15.527Z,5.63
2024-01-17T05:08:42.369Z,5.35
2024-01-17T05:11:09.154Z,5.22
2024-01-17T05:13:35.943Z,5.28
2024-01-17T05:16:02.674Z,6.07
2024-01-17T05:18:29.458Z,5.72
2024-01-17T05:20:57.044Z,5.18
2024-01-17T05:23:23.766Z,6.05
2024-01-17T05:25:50.514Z,6.18
2024-01-17T05:28:17.150Z,6.47
2024-01-17T05:30:44.071Z,5.75
2024-01-17T05:33:11.029Z,6.72
2024-01-17T05:35:38.009Z,6.15
2024-01-17T05:38:05.023Z,5.90
2024-01-17T05:40:31.685Z,6.15
2024-01-17T05:42:58.808Z,5.97
2024-01-17T05:45:25.448Z,6.85
2024-01-17T05:47:52.197Z,5.63
2024-01-17T05:50:19.038Z,5.47
2024-01-17T05:52:51.775Z,6.15
2024-01-17T05:55:18.724Z,6.20
2024-01-17T05:57:45.368Z,6.28
2024-01-17T06:00:13.738Z,6.40
2024-01-17T06:02:42.471Z,6.50
2024-01-17T06:05:09.683Z,5.82
2024-01-17T06:07:36.623Z,6.70
2024-01-17T06:10:04.329Z,7.32
2024-01-17T06:12:32.259Z,6.28
2024-01-17T06:14:59.011Z,6.22
2024-01-17T06:17:26.221Z,5.50
2024-01-17T06:22:19.978Z,7.05
2024-01-17T06:27:16.678Z,5.18
2024-01-17T06:29:47.242Z,5.55
2024-01-17T06:32:14.366Z,6.68
2024-01-17T06:34:41.989Z,5.03
2024-01-17T06:37:08.768Z,4.97
2024-01-17T06:39:35.465Z,5.47
2024-01-17T06:42:03.690Z,5.30
2024-01-17T06:44:30.613Z,4.85
2024-01-17T06:46:59.111Z,5.60
2024-01-17T06:49:27.384Z,5.30
2024-01-17T06:51:56.265Z,6.45
2024-01-17T06:54:23.012Z,5.47
2024-01-17T06:56:50.394Z,5.65
2024-01-17T06:59:17.865Z,5.10
2024-01-17T07:01:44.582Z,5.28
2024-01-17T07:04:11.363Z,5.07
2024-01-17T07:06:38.037Z,4.68
2024-01-17T07:09:05.045Z,4.57
2024-01-17T07:11:34.074Z,4.82
2024-01-17T07:14:01.623Z,6.05
2024-01-17T07:16:28.342Z,5.40
2024-01-17T07:18:56.917Z,5.30
2024-01-17T07:21:23.857Z,5.80
2024-01-17T07:23:51.254Z,6.43
2024-01-17T07:26:18.036Z,6.82
2024-01-17T07:28:44.705Z,5.95
2024-01-17T07:31:11.350Z,5.90
2024-01-17T07:33:38.384Z,6.53
2024-01-17T07:36:05.592Z,6.32
2024-01-17T07:38:32.422Z,6.40
2024-01-17T07:40:59.555Z,7.25
2024-01-17T07:43:26.394Z,6.00
2024-01-17T07:45:53.618Z,7.90
2024-01-17T07:50:48.468Z,6.45
2024-01-17T07:53:15.377Z,7.65
2024-01-17T07:55:42.145Z,5.95
2024-01-17T07:58:09.060Z,7.07
2024-01-17T08:00:35.822Z,7.60
2024-01-17T08:03:02.639Z,9.00
2024-01-17T08:05:30.209Z,9.52
2024-01-17T08:07:57.044Z,7.93
2024-01-17T08:10:23.782Z,7.32
2024-01-17T08:12:50.543Z,6.53
2024-01-17T08:15:17.379Z,7.75
2024-01-17T08:17:45.893Z,8.73
2024-01-17T08:20:13.769Z,8.80
2024-01-17T08:22:41.974Z,7.53
2024-01-17T08:25:09.465Z,6.97
2024-01-17T08:27:37.484Z,7.28
2024-01-17T08:30:05.699Z,7.43
2024-01-17T08:32:32.619Z,6.93
2024-01-17T08:34:59.621Z,6.68
2024-01-17T08:37:26.372Z,7.05
2024-01-17T08:39:53.054Z,7.45
2024-01-17T08:42:19.735Z,8.63
2024-01-17T08:44:47.028Z,7.78
2024-01-17T08:47:13.895Z,8.82
2024-01-17T08:49:41.364Z,6.07
2024-01-17T08:52:09.290Z,5.75
2024-01-17T08:54:36.180Z,6.13
2024-01-17T08:57:03.873Z,5.97
2024-01-17T08:59:34.810Z,5.53
2024-01-17T09:02:01.697Z,5.45
2024-01-17T09:04:30.101Z,5.78
2024-01-17T09:06:57.196Z,5.15
2024-01-17T09:11:56.829Z,5.82
2024-01-17T09:14:25.666Z,4.93
2024-01-17T09:16:54.447Z,5.47
2024-01-17T09:19:22.195Z,5.00
2024-01-17T09:21:52.351Z,4.38
2024-01-17T09:24:19.056Z,6.20
2024-01-17T09:26:45.820Z,5.50
2024-01-17T09:29:13.262Z,4.15
2024-01-17T09:31:39.920Z,5.10
2024-01-17T09:34:07.868Z,4.88
2024-01-17T09:36:34.731Z,4.82
2024-01-17T09:39:01.492Z,5.43
2024-01-17T09:41:28.265Z,5.20
2024-01-17T09:43:55.394Z,7.82
2024-01-17T09:48:51.521Z,7.47
2024-01-17T09:51:24.562Z,7.60
2024-01-17T09:53:53.147Z,9.98
2024-01-17T09:56:22.876Z,10.35
2024-01-17T09:58:53.602Z,8.82
2024-01-17T10:01:21.919Z,8.40
2024-01-17T10:03:50.422Z,9.40
2024-01-17T10:06:17.336Z,9.90
2024-01-17T10:08:46.443Z,9.52
2024-01-17T10:11:14.653Z,8.43
2024-01-17T10:13:41.324Z,8.65
2024-01-17T10:16:09.429Z,8.85
2024-01-17T10:18:37.394Z,8.63
2024-01-17T10:21:05.249Z,7.80
2024-01-17T10:23:32.083Z,8.98
2024-01-17T10:25:59.088Z,9.13
2024-01-17T10:28:25.741Z,9.00
2024-01-17T10:30:53.243Z,9.35
2024-01-17T10:33:20.626Z,7.43
2024-01-17T10:35:48.282Z,8.10
2024-01-17T10:38:15.441Z,7.88
2024-01-17T10:43:12.185Z,8.82
2024-01-17T10:45:46.043Z,7.88
2024-01-17T10:48:12.896Z,7.32
2024-01-17T10:50:39.826Z,7.90
2024-01-17T10:53:09.506Z,6.78
2024-01-17T10:55:38.103Z,7.70
2024-01-17T10:58:15.224Z,8.15
2024-01-17T11:00:45.223Z,8.15
2024-01-17T11:05:57.293Z,8.13
2024-01-17T11:08:25.533Z,9.10
2024-01-17T11:10:54.411Z,8.27
2024-01-17T11:13:21.838Z,9.43
2024-01-17T11:15:49.799Z,7.80
2024-01-17T11:18:18.411Z,8.32
2024-01-17T11:20:45.752Z,8.73
2024-01-17T11:23:27.621Z,8.65
2024-01-17T11:26:04.767Z,8.27
2024-01-17T11:28:45.504Z,8.85
2024-01-17T11:31:20.721Z,8.00
2024-01-17T11:33:48.456Z,8.57
2024-01-17T11:36:47.483Z,8.75
2024-01-17T11:41:47.190Z,7.90
2024-01-17T11:44:16.477Z,7.43
2024-01-17T11:46:55.989Z,7.28
2024-01-17T11:49:40.886Z,7.68
2024-01-17T11:52:29.130Z,7.53
2024-01-17T11:54:56.231Z,7.88
2024-01-17T11:57:26.673Z,8.07
2024-01-17T12:00:14.906Z,6.82
2024-01-17T12:02:43.857Z,7.15
2024-01-17T12:05:12.367Z,8.25
2024-01-17T12:07:44.575Z,6.90
2024-01-17T12:10:13.512Z,6.25
2024-01-17T12:12:44.528Z,5.57
2024-01-17T12:15:13.552Z,6.22
2024-01-17T12:17:41.707Z,6.32
2024-01-17T12:20:09.340Z,7.07
2024-01-17T12:22:36.619Z,6.57
2024-01-17T12:25:03.670Z,6.45
2024-01-17T12:27:32.180Z,6.70
2024-01-17T12:30:08.421Z,7.38
2024-01-17T12:32:35.918Z,6.68
2024-01-17T12:35:03.952Z,7.63
2024-01-17T12:37:30.936Z,6.32
2024-01-17T12:39:58.098Z,5.85
2024-01-17T12:42:24.930Z,6.55
2024-01-17T12:44:52.739Z,6.53
2024-01-17T12:47:20.529Z,6.63
2024-01-17T12:49:50.529Z,5.85
2024-01-17T12:52:18.932Z,6.32
2024-01-17T12:54:45.779Z,5.10
2024-01-17T12:57:15.643Z,5.32
2024-01-17T12:59:42.801Z,5.88
2024-01-17T13:02:16.057Z,6.15
2024-01-17T13:04:43.325Z,6.50
2024-01-17T13:07:13.482Z,5.78
2024-01-17T13:09:44.118Z,6.25
2024-01-17T13:12:11.601Z,5.82
2024-01-17T13:14:40.847Z,5.72
2024-01-17T13:17:15.843Z,4.38
2024-01-17T13:19:42.632Z,4.22
2024-01-17T13:22:09.628Z,5.68
2024-01-17T13:24:36.250Z,6.15
2024-01-17T13:27:04.029Z,7.18
2024-01-17T13:29:30.716Z,5.68
2024-01-17T13:31:57.431Z,5.72
2024-01-17T13:34:24.232Z,5.53
2024-01-17T13:36:51.737Z,4.97
2024-01-17T13:39:18.493Z,5.18
2024-01-17T13:41:45.264Z,5.07
2024-01-17T13:44:13.336Z,6.95
2024-01-17T13:46:55.091Z,5.82
2024-01-17T13:49:26.753Z,5.05
2024-01-17T13:51:56.150Z,5.68
2024-01-17T13:54:23.664Z,5.68
2024-01-17T13:56:50.783Z,4.97
2024-01-17T13:59:18.259Z,4.75
2024-01-17T14:04:11.798Z,4.20
2024-01-17T14:09:08.384Z,4.50
2024-01-17T14:11:40.317Z,4.60
2024-01-17T14:14:08.537Z,4.80
2024-01-17T14:16:35.205Z,3.85
2024-01-17T14:19:02.081Z,3.80
2024-01-17T14:21:28.817Z,4.53
2024-01-17T14:23:55.923Z,3.90
2024-01-17T14:26:22.792Z,4.50
2024-01-17T14:28:49.439Z,4.13
2024-01-17T14:31:16.098Z,3.63
2024-01-17T14:33:43.305Z,2.97
2024-01-17T14:36:12.246Z,3.03
2024-01-17T14:38:38.928Z,3.10
2024-01-17T14:41:05.724Z,3.15
2024-01-17T14:43:33.476Z,3.92
2024-01-17T14:46:00.520Z,3.67
2024-01-17T14:48:30.417Z,4.25
2024-01-17T14:50:57.173Z,4.15
2024-01-17T14:53:24.200Z,4.35
2024-01-17T14:55:51.950Z,3.85
2024-01-17T14:58:18.601Z,3.03
2024-01-17T15:00:45.293Z,2.40
2024-01-17T15:03:12.342Z,1.92
2024-01-17T15:08:06.924Z,2.00
2024-01-17T15:10:33.769Z,1.70
2024-01-17T15:13:00.562Z,2.13
2024-01-17T15:15:27.447Z,1.10
2024-01-17T15:17:54.253Z,1.30
2024-01-17T15:20:21.073Z,1.60
2024-01-17T15:22:48.156Z,1.35
2024-01-17T15:25:14.910Z,1.33
2024-01-17T15:27:42.488Z,1.15
2024-01-17T15:30:12.778Z,1.20
2024-01-17T15:32:42.954Z,2.47
2024-01-17T15:35:10.214Z,1.73
2024-01-17T15:37:37.048Z,1.50
2024-01-17T15:40:11.512Z,1.48
2024-01-17T15:42:39.271Z,1.35
2024-01-17T15:45:06.952Z,1.30
2024-01-17T15:47:36.780Z,1.13
2024-01-17T15:50:04.139Z,1.25
2024-01-17T15:52:33.522Z,0.80
2024-01-17T15:55:00.692Z,1.52
2024-01-17T15:59:54.056Z,0.68
2024-01-17T16:02:20.690Z,1.02
2024-01-17T16:04:47.381Z,0.63
2024-01-17T16:07:14.988Z,0.75
2024-01-17T16:09:41.905Z,0.70
2024-01-17T16:12:09.294Z,0.90
2024-01-17T16:14:36.032Z,0.80
2024-01-17T16:17:05.222Z,0.85
2024-01-17T16:19:31.987Z,1.05
2024-01-17T16:21:58.640Z,1.08
2024-01-17T16:24:25.381Z,0.70
2024-01-17T16:26:52.018Z,0.50
2024-01-17T16:29:18.699Z,0.80
2024-01-17T16:31:50.409Z,0.55
2024-01-17T16:34:17.649Z,0.75
2024-01-17T16:36:44.431Z,3.10
2024-01-17T16:39:17.121Z,1.83
2024-01-17T16:41:44.009Z,1.63
2024-01-17T16:44:10.875Z,1.58
2024-01-17T16:46:38.528Z,1.55
2024-01-17T16:49:06.034Z,1.95
2024-01-17T16:51:32.979Z,1.30
2024-01-17T16:53:59.698Z,1.55
2024-01-17T16:56:26.642Z,1.52
2024-01-17T16:58:53.604Z,1.50
2024-01-17T17:01:21.964Z,1.60
2024-01-17T17:03:48.691Z,1.50
2024-01-17T17:06:15.334Z,1.25
2024-01-17T17:08:42.061Z,1.40
2024-01-17T17:11:09.336Z,1.00
2024-01-17T17:13:36.150Z,1.40
2024-01-17T17:16:03.287Z,1.50
2024-01-17T17:21:01.215Z,1.00
2024-01-17T17:23:28.468Z,2.17
2024-01-17T17:28:23.649Z,1.20
2024-01-17T17:30:50.323Z,1.67
2024-01-17T17:33:17.390Z,1.52
2024-01-17T17:35:44.190Z,2.08
2024-01-17T17:38:13.073Z,2.25
2024-01-17T17:40:43.220Z,2.00
2024-01-17T17:43:12.750Z,1.95
2024-01-17T17:45:39.476Z,3.83
2024-01-17T17:48:07.200Z,4.93
2024-01-17T17:50:34.243Z,6.05
2024-01-17T17:53:00.880Z,3.63
2024-01-17T17:55:27.794Z,4.47
2024-01-17T17:57:54.514Z,4.15
2024-01-17T18:00:21.940Z,3.85
2024-01-17T18:02:48.752Z,5.07
2024-01-17T18:05:16.377Z,7.63
2024-01-17T18:07:43.092Z,6.85
2024-01-17T18:10:10.111Z,7.78
2024-01-17T18:15:04.556Z,3.67
2024-01-17T18:17:31.226Z,4.50
2024-01-17T18:19:58.859Z,6.03
2024-01-17T18:22:25.580Z,4.38
2024-01-17T18:24:52.415Z,4.90
2024-01-17T18:27:19.133Z,4.65
2024-01-17T18:29:45.891Z,5.30
2024-01-17T18:32:12.563Z,5.65
2024-01-17T18:34:39.256Z,5.13
2024-01-17T18:37:05.987Z,5.57
2024-01-17T18:39:32.772Z,6.00
2024-01-17T18:41:59.710Z,5.82
2024-01-17T18:44:26.397Z,4.07
2024-01-17T18:46:53.074Z,3.08
2024-01-17T18:49:20.488Z,3.00
2024-01-17T18:51:47.262Z,2.08
2024-01-17T18:54:14.001Z,1.80
2024-01-17T18:56:40.667Z,2.40
2024-01-17T18:59:07.358Z,3.05
2024-01-17T19:01:34.677Z,3.10
2024-01-17T19:04:03.505Z,3.88
2024-01-17T19:06:30.245Z,3.63
2024-01-17T19:08:57.218Z,4.90
2024-01-17T19:11:25.869Z,3.15
2024-01-17T19:13:52.679Z,5.60
2024-01-17T19:16:19.304Z,4.15
2024-01-17T19:18:46.143Z,5.35
2024-01-17T19:21:12.794Z,5.25
2024-01-17T19:23:39.503Z,6.05
2024-01-17T19:26:09.564Z,5.57
2024-01-17T19:28:37.118Z,4.95
2024-01-17T19:31:07.678Z,6.32
2024-01-17T19:33:35.091Z,7.40
2024-01-17T19:36:02.242Z,6.60
2024-01-17T19:38:28.959Z,7.18
2024-01-17T19:40:55.640Z,10.25
2024-01-17T19:43:23.353Z,9.38
2024-01-17T19:45:51.908Z,8.45
2024-01-17T19:48:22.883Z,9.77
2024-01-17T19:50:50.550Z,7.95
2024-01-17T19:53:18.701Z,12.43
2024-01-17T19:55:45.425Z,13.20
2024-01-17T19:58:12.162Z,13.18
2024-01-17T20:00:39.041Z,14.43
2024-01-17T20:03:06.799Z,10.60
2024-01-17T20:05:35.209Z,10.07
2024-01-17T20:08:01.843Z,11.07
2024-01-17T20:10:28.945Z,9.75
2024-01-17T20:15:26.308Z,7.20
2024-01-17T20:17:53.131Z,8.68
2024-01-17T20:20:20.099Z,8.23
2024-01-17T20:22:46.824Z,6.88
2024-01-17T20:25:17.316Z,8.98
2024-01-17T20:27:44.271Z,11.02
2024-01-17T20:30:11.521Z,16.30
2024-01-17T20:32:38.258Z,7.95
2024-01-17T20:35:05.517Z,8.48
2024-01-17T20:39:58.660Z,10.07
2024-01-17T20:42:25.457Z,10.60
2024-01-17T20:44:52.171Z,9.02
2024-01-17T20:47:18.993Z,10.68
2024-01-17T20:49:46.431Z,11.07
2024-01-17T20:52:13.646Z,10.82
2024-01-17T20:54:40.476Z,8.05
2024-01-17T20:57:07.438Z,6.70
2024-01-17T20:59:35.107Z,8.25
2024-01-17T21:02:01.885Z,7.38
2024-01-17T21:04:28.610Z,9.88
2024-01-17T21:06:55.406Z,10.18
2024-01-17T21:09:22.374Z,9.38
2024-01-17T21:11:50.238Z,10.93
2024-01-17T21:14:16.913Z,10.52
2024-01-17T21:16:45.083Z,9.07
2024-01-17T21:19:12.281Z,7.35
2024-01-17T21:24:10.450Z,6.97
2024-01-17T21:26:40.791Z,7.82
2024-01-17T21:29:09.639Z,7.88
2024-01-17T21:31:37.810Z,8.82
2024-01-17T21:34:06.572Z,9.40
2024-01-17T21:36:35.464Z,8.65
2024-01-17T21:39:04.650Z,8.48
2024-01-17T21:41:31.723Z,6.80
2024-01-17T21:43:58.739Z,9.18
2024-01-17T21:46:25.586Z,9.15
2024-01-17T21:48:52.331Z,10.18
2024-01-17T21:51:19.087Z,9.57
2024-01-17T21:53:47.389Z,8.65
2024-01-17T21:56:14.364Z,7.82
2024-01-17T21:58:41.159Z,9.25
2024-01-17T22:01:09.296Z,9.82
2024-01-17T22:03:37.474Z,9.40
2024-01-17T22:06:05.387Z,9.02
2024-01-17T22:08:44.125Z,7.47
2024-01-17T22:11:18.933Z,7.47
2024-01-17T22:13:45.588Z,11.35
2024-01-17T22:16:12.388Z,10.00
2024-01-17T22:18:39.327Z,9.20
2024-01-17T22:21:07.361Z,10.57
2024-01-17T22:23:34.000Z,10.30
2024-01-17T22:26:00.618Z,9.95
2024-01-17T22:28:27.328Z,9.38
2024-01-17T22:30:54.226Z,9.05
2024-01-17T22:33:21.102Z,8.02
2024-01-17T22:35:48.002Z,9.38
2024-01-17T22:38:14.815Z,9.77
2024-01-17T22:40:42.214Z,10.52
2024-01-17T22:43:08.861Z,10.18
2024-01-17T22:45:35.675Z,9.65
2024-01-17T22:48:04.915Z,9.43
2024-01-17T22:50:33.814Z,8.50
2024-01-17T22:53:03.195Z,9.82
2024-01-17T22:55:30.677Z,7.95
2024-01-17T22:57:57.316Z,8.10
2024-01-17T23:00:24.102Z,8.48
2024-01-17T23:02:51.781Z,9.10
2024-01-17T23:05:19.694Z,7.10
2024-01-17T23:07:54.497Z,7.20
2024-01-17T23:10:28.373Z,8.60
2024-01-17T23:12:55.362Z,8.52
2024-01-17T23:15:22.217Z,8.52
2024-01-17T23:17:49.192Z,9.20
2024-01-17T23:20:16.008Z,9.07
2024-01-17T23:22:42.710Z,8.57
2024-01-17T23:25:10.710Z,8.43
2024-01-17T23:27:37.662Z,8.68
2024-01-17T23:30:05.003Z,9.10
2024-01-17T23:32:31.708Z,11.52
2024-01-17T23:34:58.383Z,11.98
2024-01-17T23:37:25.032Z,10.15
2024-01-17T23:39:51.689Z,9.52
2024-01-17T23:42:18.428Z,9.43
2024-01-17T23:44:45.072Z,9.10
2024-01-17T23:47:11.759Z,9.95
2024-01-17T23:49:39.640Z,9.38
2024-01-17T23:52:06.525Z,9.80
2024-01-17T23:54:33.318Z,9.00
2024-01-17T23:57:00.733Z,11.00
2024-01-17T23:59:27.926Z,8.43
